sensor_id;sensor_type;location;lat;lon;timestamp;P1;P2;P0
20157;PMS5003;10239;56.820;24.416;2022-10-16T00:01:28;18.80;15.80;7.00
20157;PMS5003;10239;56.820;24.416;2022-10-16T00:03:58;22.20;21.00;9.20
20157;PMS5003;10239;56.820;24.416;2022-10-16T00:06:28;15.60;13.00;8.00
20157;PMS5003;10239;56.820;24.416;2022-10-16T00:08:56;25.20;17.40;9.20
20157;PMS5003;10239;56.820;24.416;2022-10-16T00:11:28;23.20;14.60;8.40
20157;PMS5003;10239;56.820;24.416;2022-10-16T00:14:01;17.60;15.20;7.40
20157;PMS5003;10239;56.820;24.416;2022-10-16T00:16:30;21.80;17.60;8.20
20157;PMS5003;10239;56.820;24.416;2022-10-16T00:18:58;20.80;17.40;8.00
20157;PMS5003;10239;56.820;24.416;2022-10-16T00:21:27;26.20;16.40;7.40
20157;PMS5003;10239;56.820;24.416;2022-10-16T00:23:57;20.00;16.60;7.00
20157;PMS5003;10239;56.820;24.416;2022-10-16T00:26:36;21.20;15.20;11.40
20157;PMS5003;10239;56.820;24.416;2022-10-16T00:29:05;18.20;13.40;6.20
20157;PMS5003;10239;56.820;24.416;2022-10-16T00:31:33;20.20;17.60;8.40
20157;PMS5003;10239;56.820;24.416;2022-10-16T00:34:01;22.40;16.60;8.60
20157;PMS5003;10239;56.820;24.416;2022-10-16T00:36:29;22.40;18.80;9.00
20157;PMS5003;10239;56.820;24.416;2022-10-16T00:38:57;20.20;15.80;8.00
20157;PMS5003;10239;56.820;24.416;2022-10-16T00:41:28;17.60;16.00;6.60
20157;PMS5003;10239;56.820;24.416;2022-10-16T00:44:01;18.80;13.60;5.00
20157;PMS5003;10239;56.820;24.416;2022-10-16T00:51:46;18.80;13.20;7.20
20157;PMS5003;10239;56.820;24.416;2022-10-16T00:54:20;20.20;19.20;9.00
20157;PMS5003;10239;56.820;24.416;2022-10-16T00:56:58;16.40;16.20;8.40
20157;PMS5003;10239;56.820;24.416;2022-10-16T00:59:29;23.20;17.00;9.00
20157;PMS5003;10239;56.820;24.416;2022-10-16T01:02:02;20.80;16.40;9.00
20157;PMS5003;10239;56.820;24.416;2022-10-16T01:04:52;24.40;22.40;8.60
20157;PMS5003;10239;56.820;24.416;2022-10-16T01:12:43;21.00;18.00;7.00
20157;PMS5003;10239;56.820;24.416;2022-10-16T01:20:33;21.80;19.60;9.00
20157;PMS5003;10239;56.820;24.416;2022-10-16T01:28:28;23.20;15.40;8.80
20157;PMS5003;10239;56.820;24.416;2022-10-16T01:31:19;23.20;17.00;8.80
20157;PMS5003;10239;56.820;24.416;2022-10-16T01:34:10;22.60;17.60;7.80
20157;PMS5003;10239;56.820;24.416;2022-10-16T01:36:49;18.40;15.60;9.00
20157;PMS5003;10239;56.820;24.416;2022-10-16T01:39:23;20.20;18.40;9.80
20157;PMS5003;10239;56.820;24.416;2022-10-16T01:42:07;18.60;17.60;9.00
20157;PMS5003;10239;56.820;24.416;2022-10-16T01:44:42;22.60;19.60;10.00
20157;PMS5003;10239;56.820;24.416;2022-10-16T01:47:13;23.00;15.60;9.00
20157;PMS5003;10239;56.820;24.416;2022-10-16T01:49:42;21.60;15.20;8.00
20157;PMS5003;10239;56.820;24.416;2022-10-16T01:52:14;25.80;21.80;13.20
20157;PMS5003;10239;56.820;24.416;2022-10-16T01:54:46;11.80;11.80;2.20
20157;PMS5003;10239;56.820;24.416;2022-10-16T01:57:17;23.40;17.60;8.40
20157;PMS5003;10239;56.820;24.416;2022-10-16T01:59:49;19.80;16.40;5.40
20157;PMS5003;10239;56.820;24.416;2022-10-16T02:02:19;21.20;17.80;10.80
20157;PMS5003;10239;56.820;24.416;2022-10-16T02:04:52;19.20;16.00;9.20
20157;PMS5003;10239;56.820;24.416;2022-10-16T02:07:25;15.00;12.40;3.80
20157;PMS5003;10239;56.820;24.416;2022-10-16T02:09:53;19.80;18.00;8.80
20157;PMS5003;10239;56.820;24.416;2022-10-16T02:12:28;16.20;14.80;8.60
20157;PMS5003;10239;56.820;24.416;2022-10-16T02:14:59;25.60;21.20;9.00
20157;PMS5003;10239;56.820;24.416;2022-10-16T02:17:27;16.00;12.20;9.00
20157;PMS5003;10239;56.820;24.416;2022-10-16T02:19:55;20.20;17.40;9.80
20157;PMS5003;10239;56.820;24.416;2022-10-16T02:22:40;20.40;16.00;8.20
20157;PMS5003;10239;56.820;24.416;2022-10-16T02:25:21;20.80;17.00;8.80
20157;PMS5003;10239;56.820;24.416;2022-10-16T02:28:06;17.60;15.40;7.20
20157;PMS5003;10239;56.820;24.416;2022-10-16T02:30:45;27.00;19.60;10.20
20157;PMS5003;10239;56.820;24.416;2022-10-16T02:33:18;23.00;17.20;9.00
20157;PMS5003;10239;56.820;24.416;2022-10-16T02:35:48;24.60;21.00;11.00
20157;PMS5003;10239;56.820;24.416;2022-10-16T02:38:18;23.40;22.00;9.80
20157;PMS5003;10239;56.820;24.416;2022-10-16T02:40:47;30.00;23.20;11.00
20157;PMS5003;10239;56.820;24.416;2022-10-16T02:43:15;16.80;15.20;7.80
20157;PMS5003;10239;56.820;24.416;2022-10-16T02:45:43;30.60;22.80;12.20
20157;PMS5003;10239;56.820;24.416;2022-10-16T02:48:11;25.40;19.20;9.40
20157;PMS5003;10239;56.820;24.416;2022-10-16T02:50:39;25.60;18.60;12.40
20157;PMS5003;10239;56.820;24.416;2022-10-16T02:53:06;23.40;22.00;9.40
20157;PMS5003;10239;56.820;24.416;2022-10-16T02:55:34;20.80;19.40;10.40
20157;PMS5003;10239;56.820;24.416;2022-10-16T02:58:01;22.80;18.20;10.60
20157;PMS5003;10239;56.820;24.416;2022-10-16T03:00:29;33.60;25.00;10.40
20157;PMS5003;10239;56.820;24.416;2022-10-16T03:02:57;34.00;25.40;12.20
20157;PMS5003;10239;56.820;24.416;2022-10-16T03:05:24;21.80;17.80;8.80
20157;PMS5003;10239;56.820;24.416;2022-10-16T03:07:52;23.80;19.00;9.00
20157;PMS5003;10239;56.820;24.416;2022-10-16T03:10:19;15.60;15.60;10.00
20157;PMS5003;10239;56.820;24.416;2022-10-16T03:12:47;31.80;17.60;8.00
20157;PMS5003;10239;56.820;24.416;2022-10-16T03:15:15;31.80;25.60;12.80
20157;PMS5003;10239;56.820;24.416;2022-10-16T03:17:42;35.20;25.20;11.80
20157;PMS5003;10239;56.820;24.416;2022-10-16T03:20:10;24.40;19.00;10.80
20157;PMS5003;10239;56.820;24.416;2022-10-16T03:22:38;28.40;25.20;10.60
20157;PMS5003;10239;56.820;24.416;2022-10-16T03:25:05;26.20;20.60;9.20
20157;PMS5003;10239;56.820;24.416;2022-10-16T03:27:33;23.60;21.80;12.20
20157;PMS5003;10239;56.820;24.416;2022-10-16T03:30:01;34.60;25.40;10.40
20157;PMS5003;10239;56.820;24.416;2022-10-16T03:32:28;31.20;22.60;12.00
20157;PMS5003;10239;56.820;24.416;2022-10-16T03:34:56;26.00;22.00;11.00
20157;PMS5003;10239;56.820;24.416;2022-10-16T03:37:26;20.40;18.20;11.40
20157;PMS5003;10239;56.820;24.416;2022-10-16T03:39:54;26.80;21.80;11.00
20157;PMS5003;10239;56.820;24.416;2022-10-16T03:42:22;21.20;16.20;8.20
20157;PMS5003;10239;56.820;24.416;2022-10-16T03:44:51;20.60;18.80;9.00
20157;PMS5003;10239;56.820;24.416;2022-10-16T03:47:18;32.20;24.80;11.60
20157;PMS5003;10239;56.820;24.416;2022-10-16T03:49:49;25.00;20.00;9.40
20157;PMS5003;10239;56.820;24.416;2022-10-16T03:52:17;23.40;23.40;12.00
20157;PMS5003;10239;56.820;24.416;2022-10-16T03:54:49;19.00;13.00;8.20
20157;PMS5003;10239;56.820;24.416;2022-10-16T03:57:17;24.20;20.00;11.00
20157;PMS5003;10239;56.820;24.416;2022-10-16T03:59:44;32.60;25.60;12.40
20157;PMS5003;10239;56.820;24.416;2022-10-16T04:02:12;22.60;22.20;11.00
20157;PMS5003;10239;56.820;24.416;2022-10-16T04:04:39;22.20;18.80;9.00
20157;PMS5003;10239;56.820;24.416;2022-10-16T04:07:07;23.40;21.40;12.00
20157;PMS5003;10239;56.820;24.416;2022-10-16T04:09:34;22.00;16.80;7.60
20157;PMS5003;10239;56.820;24.416;2022-10-16T04:12:02;29.20;24.60;11.80
20157;PMS5003;10239;56.820;24.416;2022-10-16T04:14:29;28.20;22.80;6.00
20157;PMS5003;10239;56.820;24.416;2022-10-16T04:16:57;19.60;15.20;7.20
20157;PMS5003;10239;56.820;24.416;2022-10-16T04:19:24;34.40;22.20;12.80
20157;PMS5003;10239;56.820;24.416;2022-10-16T04:21:53;22.80;18.80;9.80
20157;PMS5003;10239;56.820;24.416;2022-10-16T04:24:20;26.80;22.00;10.60
20157;PMS5003;10239;56.820;24.416;2022-10-16T04:26:48;31.00;25.80;12.00
20157;PMS5003;10239;56.820;24.416;2022-10-16T04:29:15;26.40;21.60;9.20
20157;PMS5003;10239;56.820;24.416;2022-10-16T04:31:43;34.00;25.60;10.60
20157;PMS5003;10239;56.820;24.416;2022-10-16T04:34:10;24.40;20.00;8.60
20157;PMS5003;10239;56.820;24.416;2022-10-16T04:36:38;29.80;21.00;11.00
20157;PMS5003;10239;56.820;24.416;2022-10-16T04:39:05;22.00;19.20;10.80
20157;PMS5003;10239;56.820;24.416;2022-10-16T04:41:32;29.40;19.60;9.00
20157;PMS5003;10239;56.820;24.416;2022-10-16T04:44:00;31.80;24.40;12.00
20157;PMS5003;10239;56.820;24.416;2022-10-16T04:46:28;24.40;21.60;10.80
20157;PMS5003;10239;56.820;24.416;2022-10-16T04:48:55;22.60;18.80;9.00
20157;PMS5003;10239;56.820;24.416;2022-10-16T04:51:23;22.40;22.40;10.80
20157;PMS5003;10239;56.820;24.416;2022-10-16T04:53:52;33.80;25.80;12.60
20157;PMS5003;10239;56.820;24.416;2022-10-16T04:56:21;27.60;22.00;11.40
20157;PMS5003;10239;56.820;24.416;2022-10-16T04:58:48;34.60;26.20;13.00
20157;PMS5003;10239;56.820;24.416;2022-10-16T05:01:16;31.80;27.20;13.80
20157;PMS5003;10239;56.820;24.416;2022-10-16T05:03:43;28.80;24.00;11.20
20157;PMS5003;10239;56.820;24.416;2022-10-16T05:06:11;36.80;31.20;15.00
20157;PMS5003;10239;56.820;24.416;2022-10-16T05:08:39;20.40;18.40;8.00
20157;PMS5003;10239;56.820;24.416;2022-10-16T05:11:06;39.80;30.00;15.60
20157;PMS5003;10239;56.820;24.416;2022-10-16T05:13:34;34.40;23.40;13.20
20157;PMS5003;10239;56.820;24.416;2022-10-16T05:16:02;40.40;30.00;15.20
20157;PMS5003;10239;56.820;24.416;2022-10-16T05:18:29;22.00;21.40;12.60
20157;PMS5003;10239;56.820;24.416;2022-10-16T05:20:57;26.80;22.20;12.20
20157;PMS5003;10239;56.820;24.416;2022-10-16T05:23:24;28.60;23.80;11.40
20157;PMS5003;10239;56.820;24.416;2022-10-16T05:25:55;29.40;27.60;13.80
20157;PMS5003;10239;56.820;24.416;2022-10-16T05:28:25;35.20;29.80;13.20
20157;PMS5003;10239;56.820;24.416;2022-10-16T05:30:54;38.40;27.60;12.80
20157;PMS5003;10239;56.820;24.416;2022-10-16T05:33:22;31.20;22.00;10.00
20157;PMS5003;10239;56.820;24.416;2022-10-16T05:35:51;42.80;32.40;14.60
20157;PMS5003;10239;56.820;24.416;2022-10-16T05:38:19;50.80;38.20;21.00
20157;PMS5003;10239;56.820;24.416;2022-10-16T05:40:52;36.20;29.40;11.00
20157;PMS5003;10239;56.820;24.416;2022-10-16T05:43:20;26.00;21.00;9.40
20157;PMS5003;10239;56.820;24.416;2022-10-16T05:45:57;29.80;25.80;14.00
20157;PMS5003;10239;56.820;24.416;2022-10-16T05:48:27;38.00;29.20;13.00
20157;PMS5003;10239;56.820;24.416;2022-10-16T05:50:56;36.20;27.40;13.40
20157;PMS5003;10239;56.820;24.416;2022-10-16T05:53:29;34.40;22.60;12.60
20157;PMS5003;10239;56.820;24.416;2022-10-16T05:55:58;32.40;30.40;14.00
20157;PMS5003;10239;56.820;24.416;2022-10-16T05:58:30;35.60;31.40;15.00
20157;PMS5003;10239;56.820;24.416;2022-10-16T06:01:00;30.00;23.00;13.80
20157;PMS5003;10239;56.820;24.416;2022-10-16T06:03:30;24.20;24.20;12.40
20157;PMS5003;10239;56.820;24.416;2022-10-16T06:05:57;35.40;31.20;14.80
20157;PMS5003;10239;56.820;24.416;2022-10-16T06:08:25;28.20;24.60;12.00
20157;PMS5003;10239;56.820;24.416;2022-10-16T06:11:06;23.40;20.60;7.60
20157;PMS5003;10239;56.820;24.416;2022-10-16T06:13:35;29.40;22.20;9.80
20157;PMS5003;10239;56.820;24.416;2022-10-16T06:16:03;18.60;18.60;10.00
20157;PMS5003;10239;56.820;24.416;2022-10-16T06:18:31;27.80;22.60;12.00
20157;PMS5003;10239;56.820;24.416;2022-10-16T06:20:59;26.00;23.40;11.80
20157;PMS5003;10239;56.820;24.416;2022-10-16T06:23:27;34.40;32.60;12.80
20157;PMS5003;10239;56.820;24.416;2022-10-16T06:26:03;36.80;26.80;12.40
20157;PMS5003;10239;56.820;24.416;2022-10-16T06:28:35;37.20;27.80;12.00
20157;PMS5003;10239;56.820;24.416;2022-10-16T06:31:02;36.40;28.40;13.00
20157;PMS5003;10239;56.820;24.416;2022-10-16T06:33:34;26.60;25.60;11.00
20157;PMS5003;10239;56.820;24.416;2022-10-16T06:36:06;43.00;32.40;15.00
20157;PMS5003;10239;56.820;24.416;2022-10-16T06:38:35;37.40;31.80;14.20
20157;PMS5003;10239;56.820;24.416;2022-10-16T06:41:03;33.40;27.80;10.80
20157;PMS5003;10239;56.820;24.416;2022-10-16T06:43:32;27.60;23.00;11.40
20157;PMS5003;10239;56.820;24.416;2022-10-16T06:46:02;32.60;28.00;14.00
20157;PMS5003;10239;56.820;24.416;2022-10-16T06:48:31;34.20;27.80;14.60
20157;PMS5003;10239;56.820;24.416;2022-10-16T06:51:00;34.00;28.80;13.60
20157;PMS5003;10239;56.820;24.416;2022-10-16T06:53:31;33.00;26.40;13.60
20157;PMS5003;10239;56.820;24.416;2022-10-16T06:56:26;41.00;32.60;12.60
20157;PMS5003;10239;56.820;24.416;2022-10-16T06:58:56;33.00;27.80;13.80
20157;PMS5003;10239;56.820;24.416;2022-10-16T07:01:25;46.80;33.40;16.00
20157;PMS5003;10239;56.820;24.416;2022-10-16T07:03:53;39.40;31.60;16.00
20157;PMS5003;10239;56.820;24.416;2022-10-16T07:06:22;29.40;28.40;13.20
20157;PMS5003;10239;56.820;24.416;2022-10-16T07:08:51;39.00;29.20;15.00
20157;PMS5003;10239;56.820;24.416;2022-10-16T07:11:20;24.00;16.80;12.80
20157;PMS5003;10239;56.820;24.416;2022-10-16T07:13:48;31.20;27.20;14.60
20157;PMS5003;10239;56.820;24.416;2022-10-16T07:16:21;35.40;31.60;14.60
20157;PMS5003;10239;56.820;24.416;2022-10-16T07:18:50;32.00;26.80;16.60
20157;PMS5003;10239;56.820;24.416;2022-10-16T07:21:21;33.40;27.20;14.00
20157;PMS5003;10239;56.820;24.416;2022-10-16T07:23:53;37.00;29.20;14.20
20157;PMS5003;10239;56.820;24.416;2022-10-16T07:26:23;35.20;30.20;14.60
20157;PMS5003;10239;56.820;24.416;2022-10-16T07:28:51;29.00;25.60;13.20
20157;PMS5003;10239;56.820;24.416;2022-10-16T07:31:20;40.00;32.60;15.80
20157;PMS5003;10239;56.820;24.416;2022-10-16T07:33:48;44.20;34.60;15.00
20157;PMS5003;10239;56.820;24.416;2022-10-16T07:36:16;43.20;34.60;15.60
20157;PMS5003;10239;56.820;24.416;2022-10-16T07:38:45;36.80;28.20;13.00
20157;PMS5003;10239;56.820;24.416;2022-10-16T07:41:14;31.80;27.80;9.40
20157;PMS5003;10239;56.820;24.416;2022-10-16T07:43:47;28.20;24.00;12.60
20157;PMS5003;10239;56.820;24.416;2022-10-16T07:46:16;43.00;33.20;16.60
20157;PMS5003;10239;56.820;24.416;2022-10-16T07:48:45;36.60;33.80;16.00
20157;PMS5003;10239;56.820;24.416;2022-10-16T07:51:15;42.40;33.60;16.00
20157;PMS5003;10239;56.820;24.416;2022-10-16T07:53:45;37.60;32.40;16.40
20157;PMS5003;10239;56.820;24.416;2022-10-16T07:56:13;41.20;30.00;13.40
20157;PMS5003;10239;56.820;24.416;2022-10-16T07:58:42;32.60;25.40;9.60
20157;PMS5003;10239;56.820;24.416;2022-10-16T08:01:11;31.20;29.00;13.80
20157;PMS5003;10239;56.820;24.416;2022-10-16T08:03:44;34.20;28.00;15.00
20157;PMS5003;10239;56.820;24.416;2022-10-16T08:06:13;35.40;29.20;11.80
20157;PMS5003;10239;56.820;24.416;2022-10-16T08:08:41;43.80;30.60;12.20
20157;PMS5003;10239;56.820;24.416;2022-10-16T08:11:08;34.60;30.40;14.40
20157;PMS5003;10239;56.820;24.416;2022-10-16T08:13:36;43.40;32.40;13.20
20157;PMS5003;10239;56.820;24.416;2022-10-16T08:16:04;37.20;31.80;16.80
20157;PMS5003;10239;56.820;24.416;2022-10-16T08:18:35;33.40;27.00;8.80
20157;PMS5003;10239;56.820;24.416;2022-10-16T08:21:04;27.00;23.20;11.00
20157;PMS5003;10239;56.820;24.416;2022-10-16T08:23:32;38.80;33.00;16.00
20157;PMS5003;10239;56.820;24.416;2022-10-16T08:26:05;40.00;29.60;15.00
20157;PMS5003;10239;56.820;24.416;2022-10-16T08:28:34;36.80;31.00;16.60
20157;PMS5003;10239;56.820;24.416;2022-10-16T08:31:09;36.60;31.00;15.00
20157;PMS5003;10239;56.820;24.416;2022-10-16T08:33:40;42.40;32.80;16.00
20157;PMS5003;10239;56.820;24.416;2022-10-16T08:36:09;29.40;27.60;14.00
20157;PMS5003;10239;56.820;24.416;2022-10-16T08:38:38;36.40;30.20;16.20
20157;PMS5003;10239;56.820;24.416;2022-10-16T08:43:45;40.60;31.80;15.60
20157;PMS5003;10239;56.820;24.416;2022-10-16T08:46:42;27.00;22.40;9.80
20157;PMS5003;10239;56.820;24.416;2022-10-16T08:49:16;29.60;27.80;16.00
20157;PMS5003;10239;56.820;24.416;2022-10-16T08:51:44;40.60;31.60;15.00
20157;PMS5003;10239;56.820;24.416;2022-10-16T08:56:56;32.80;26.60;13.00
20157;PMS5003;10239;56.820;24.416;2022-10-16T08:59:31;24.80;24.80;9.00
20157;PMS5003;10239;56.820;24.416;2022-10-16T09:01:59;37.40;29.00;15.00
20157;PMS5003;10239;56.820;24.416;2022-10-16T09:04:48;30.20;20.00;5.20
20157;PMS5003;10239;56.820;24.416;2022-10-16T09:07:26;49.60;35.20;17.60
20157;PMS5003;10239;56.820;24.416;2022-10-16T09:12:54;38.40;31.20;13.60
20157;PMS5003;10239;56.820;24.416;2022-10-16T09:15:35;38.00;32.20;16.00
20157;PMS5003;10239;56.820;24.416;2022-10-16T09:23:39;41.40;31.00;14.00
20157;PMS5003;10239;56.820;24.416;2022-10-16T09:26:09;36.40;29.20;17.00
20157;PMS5003;10239;56.820;24.416;2022-10-16T09:28:40;24.40;20.60;12.00
20157;PMS5003;10239;56.820;24.416;2022-10-16T09:31:13;34.60;28.00;14.60
20157;PMS5003;10239;56.820;24.416;2022-10-16T09:33:45;36.20;29.40;15.80
20157;PMS5003;10239;56.820;24.416;2022-10-16T09:36:15;47.00;35.80;16.00
20157;PMS5003;10239;56.820;24.416;2022-10-16T09:38:44;38.60;30.40;15.40
20157;PMS5003;10239;56.820;24.416;2022-10-16T09:44:00;33.00;28.80;12.00
20157;PMS5003;10239;56.820;24.416;2022-10-16T09:48:59;44.20;34.60;18.60
20157;PMS5003;10239;56.820;24.416;2022-10-16T09:51:30;31.20;20.80;10.40
20157;PMS5003;10239;56.820;24.416;2022-10-16T09:56:37;30.60;27.40;10.80
20157;PMS5003;10239;56.820;24.416;2022-10-16T09:59:15;43.20;32.80;15.20
20157;PMS5003;10239;56.820;24.416;2022-10-16T10:01:45;34.80;32.00;15.60
20157;PMS5003;10239;56.820;24.416;2022-10-16T10:04:22;40.00;29.60;11.80
20157;PMS5003;10239;56.820;24.416;2022-10-16T10:06:55;36.00;30.40;15.00
20157;PMS5003;10239;56.820;24.416;2022-10-16T10:09:42;34.20;27.00;14.00
20157;PMS5003;10239;56.820;24.416;2022-10-16T10:12:22;28.80;23.80;15.80
20157;PMS5003;10239;56.820;24.416;2022-10-16T10:14:54;29.40;22.80;11.20
20157;PMS5003;10239;56.820;24.416;2022-10-16T10:17:25;45.80;34.80;18.00
20157;PMS5003;10239;56.820;24.416;2022-10-16T10:19:55;23.60;23.60;12.80
20157;PMS5003;10239;56.820;24.416;2022-10-16T10:24:56;41.40;33.20;16.40
20157;PMS5003;10239;56.820;24.416;2022-10-16T10:27:32;29.40;24.20;14.00
20157;PMS5003;10239;56.820;24.416;2022-10-16T10:30:26;35.40;29.00;15.00
20157;PMS5003;10239;56.820;24.416;2022-10-16T10:33:17;22.60;22.60;11.60
20157;PMS5003;10239;56.820;24.416;2022-10-16T10:36:07;36.20;26.20;11.60
20157;PMS5003;10239;56.820;24.416;2022-10-16T10:38:54;22.20;16.00;8.40
20157;PMS5003;10239;56.820;24.416;2022-10-16T10:41:40;46.00;33.40;17.40
20157;PMS5003;10239;56.820;24.416;2022-10-16T10:50:42;33.40;29.00;14.80
20157;PMS5003;10239;56.820;24.416;2022-10-16T11:01:56;36.40;28.60;15.00
20157;PMS5003;10239;56.820;24.416;2022-10-16T11:07:29;35.40;29.20;10.60
20157;PMS5003;10239;56.820;24.416;2022-10-16T11:10:20;30.80;26.40;11.80
20157;PMS5003;10239;56.820;24.416;2022-10-16T11:12:52;30.60;27.80;14.60
20157;PMS5003;10239;56.820;24.416;2022-10-16T11:15:32;27.00;22.50;11.25
20157;PMS5003;10239;56.820;24.416;2022-10-16T11:18:05;43.60;30.80;15.20
20157;PMS5003;10239;56.820;24.416;2022-10-16T11:20:37;42.00;33.40;14.80
20157;PMS5003;10239;56.820;24.416;2022-10-16T11:23:25;37.40;32.60;14.00
20157;PMS5003;10239;56.820;24.416;2022-10-16T11:25:59;32.20;30.00;13.00
20157;PMS5003;10239;56.820;24.416;2022-10-16T11:31:43;27.00;24.20;12.00
20157;PMS5003;10239;56.820;24.416;2022-10-16T11:34:23;27.20;26.20;16.80
20157;PMS5003;10239;56.820;24.416;2022-10-16T11:37:10;24.00;24.00;14.00
20157;PMS5003;10239;56.820;24.416;2022-10-16T11:39:44;28.75;21.50;9.00
20157;PMS5003;10239;56.820;24.416;2022-10-16T11:42:15;26.50;24.75;13.00
20157;PMS5003;10239;56.820;24.416;2022-10-16T11:47:54;30.00;25.00;11.00
20157;PMS5003;10239;56.820;24.416;2022-10-16T11:50:38;33.00;26.40;11.00
20157;PMS5003;10239;56.820;24.416;2022-10-16T11:56:03;22.00;22.00;11.20
20157;PMS5003;10239;56.820;24.416;2022-10-16T11:58:36;29.50;26.75;11.50
20157;PMS5003;10239;56.820;24.416;2022-10-16T12:04:17;20.50;19.75;11.50
20157;PMS5003;10239;56.820;24.416;2022-10-16T12:07:13;20.00;18.60;8.40
20157;PMS5003;10239;56.820;24.416;2022-10-16T12:09:45;25.80;21.00;12.40
20157;PMS5003;10239;56.820;24.416;2022-10-16T12:15:25;33.80;27.40;13.60
20157;PMS5003;10239;56.820;24.416;2022-10-16T12:18:20;29.40;23.20;14.20
20157;PMS5003;10239;56.820;24.416;2022-10-16T12:20:55;35.60;29.80;13.00
20157;PMS5003;10239;56.820;24.416;2022-10-16T12:23:33;27.40;27.40;14.80
20157;PMS5003;10239;56.820;24.416;2022-10-16T12:26:05;20.40;18.80;13.40
20157;PMS5003;10239;56.820;24.416;2022-10-16T12:28:33;35.40;27.60;11.40
20157;PMS5003;10239;56.820;24.416;2022-10-16T12:31:03;23.25;17.50;3.75
20157;PMS5003;10239;56.820;24.416;2022-10-16T12:33:34;29.80;24.40;12.40
20157;PMS5003;10239;56.820;24.416;2022-10-16T12:36:03;28.40;26.20;13.20
20157;PMS5003;10239;56.820;24.416;2022-10-16T12:38:51;20.00;17.80;8.60
20157;PMS5003;10239;56.820;24.416;2022-10-16T12:41:33;25.50;19.75;9.50
20157;PMS5003;10239;56.820;24.416;2022-10-16T12:44:04;32.00;26.50;12.00
20157;PMS5003;10239;56.820;24.416;2022-10-16T12:51:48;31.75;27.50;13.00
20157;PMS5003;10239;56.820;24.416;2022-10-16T13:06:19;30.25;26.75;10.25
20157;PMS5003;10239;56.820;24.416;2022-10-16T13:09:06;20.80;19.00;11.40
20157;PMS5003;10239;56.820;24.416;2022-10-16T13:11:43;32.00;25.40;13.00
20157;PMS5003;10239;56.820;24.416;2022-10-16T13:28:37;33.60;26.40;11.00
20157;PMS5003;10239;56.820;24.416;2022-10-16T13:31:09;29.00;26.00;11.20
20157;PMS5003;10239;56.820;24.416;2022-10-16T13:33:49;24.20;23.00;11.80
20157;PMS5003;10239;56.820;24.416;2022-10-16T13:36:29;27.80;25.20;11.40
20157;PMS5003;10239;56.820;24.416;2022-10-16T13:39:21;27.75;21.75;12.25
20157;PMS5003;10239;56.820;24.416;2022-10-16T13:42:10;34.00;27.00;10.00
20157;PMS5003;10239;56.820;24.416;2022-10-16T13:44:46;30.75;26.00;13.00
20157;PMS5003;10239;56.820;24.416;2022-10-16T13:47:20;33.80;23.80;11.00
20157;PMS5003;10239;56.820;24.416;2022-10-16T13:50:05;26.00;23.25;11.00
20157;PMS5003;10239;56.820;24.416;2022-10-16T13:52:38;26.00;23.00;9.40
20157;PMS5003;10239;56.820;24.416;2022-10-16T13:55:13;19.00;19.00;11.75
20157;PMS5003;10239;56.820;24.416;2022-10-16T13:57:43;21.80;18.20;11.00
20157;PMS5003;10239;56.820;24.416;2022-10-16T14:00:24;23.20;21.80;9.60
20157;PMS5003;10239;56.820;24.416;2022-10-16T14:02:58;32.00;25.80;14.00
20157;PMS5003;10239;56.820;24.416;2022-10-16T14:05:30;33.00;26.60;12.20
20157;PMS5003;10239;56.820;24.416;2022-10-16T14:07:58;39.60;29.20;14.00
20157;PMS5003;10239;56.820;24.416;2022-10-16T14:10:27;23.50;22.25;9.50
20157;PMS5003;10239;56.820;24.416;2022-10-16T14:13:03;31.00;24.25;11.75
20157;PMS5003;10239;56.820;24.416;2022-10-16T14:15:34;28.50;23.25;10.25
20157;PMS5003;10239;56.820;24.416;2022-10-16T14:18:03;27.40;23.40;9.00
20157;PMS5003;10239;56.820;24.416;2022-10-16T14:20:31;32.60;28.60;13.00
20157;PMS5003;10239;56.820;24.416;2022-10-16T14:23:16;32.80;22.40;15.40
20157;PMS5003;10239;56.820;24.416;2022-10-16T14:26:04;28.00;27.20;13.00
20157;PMS5003;10239;56.820;24.416;2022-10-16T14:28:42;32.20;28.20;14.00
20157;PMS5003;10239;56.820;24.416;2022-10-16T14:31:30;30.40;26.80;13.20
20157;PMS5003;10239;56.820;24.416;2022-10-16T14:33:59;26.60;22.60;11.00
20157;PMS5003;10239;56.820;24.416;2022-10-16T14:36:27;37.80;31.00;15.20
20157;PMS5003;10239;56.820;24.416;2022-10-16T14:41:31;40.20;33.40;15.20
20157;PMS5003;10239;56.820;24.416;2022-10-16T14:44:09;34.80;30.20;14.80
20157;PMS5003;10239;56.820;24.416;2022-10-16T14:46:40;21.60;21.60;11.20
20157;PMS5003;10239;56.820;24.416;2022-10-16T14:51:37;32.20;25.00;12.20
20157;PMS5003;10239;56.820;24.416;2022-10-16T14:54:09;40.40;31.60;16.80
20157;PMS5003;10239;56.820;24.416;2022-10-16T15:02:48;35.80;28.60;13.20
20157;PMS5003;10239;56.820;24.416;2022-10-16T15:07:46;32.60;28.40;12.80
20157;PMS5003;10239;56.820;24.416;2022-10-16T15:10:14;31.20;28.00;14.20
20157;PMS5003;10239;56.820;24.416;2022-10-16T15:12:43;32.60;28.60;14.80
20157;PMS5003;10239;56.820;24.416;2022-10-16T15:15:33;30.80;29.40;15.20
20157;PMS5003;10239;56.820;24.416;2022-10-16T15:18:02;35.20;28.20;13.00
20157;PMS5003;10239;56.820;24.416;2022-10-16T15:20:32;33.80;28.20;14.80
20157;PMS5003;10239;56.820;24.416;2022-10-16T15:23:05;39.80;30.80;15.20
20157;PMS5003;10239;56.820;24.416;2022-10-16T15:28:11;39.40;30.80;14.00
20157;PMS5003;10239;56.820;24.416;2022-10-16T15:30:40;27.00;23.40;14.20
20157;PMS5003;10239;56.820;24.416;2022-10-16T15:33:10;35.40;30.20;13.00
20157;PMS5003;10239;56.820;24.416;2022-10-16T15:35:41;33.20;27.80;15.00
20157;PMS5003;10239;56.820;24.416;2022-10-16T15:38:10;33.00;26.20;15.60
20157;PMS5003;10239;56.820;24.416;2022-10-16T15:40:39;33.00;27.80;12.60
20157;PMS5003;10239;56.820;24.416;2022-10-16T15:43:07;34.80;28.20;14.00
20157;PMS5003;10239;56.820;24.416;2022-10-16T15:45:35;36.00;26.40;13.20
20157;PMS5003;10239;56.820;24.416;2022-10-16T15:48:03;28.80;25.40;14.00
20157;PMS5003;10239;56.820;24.416;2022-10-16T15:50:31;33.00;29.00;13.00
20157;PMS5003;10239;56.820;24.416;2022-10-16T15:52:59;34.40;30.40;13.80
20157;PMS5003;10239;56.820;24.416;2022-10-16T15:55:26;29.20;22.80;13.60
20157;PMS5003;10239;56.820;24.416;2022-10-16T15:57:54;30.80;28.00;15.00
20157;PMS5003;10239;56.820;24.416;2022-10-16T16:00:22;31.40;24.20;12.40
20157;PMS5003;10239;56.820;24.416;2022-10-16T16:02:52;29.80;25.60;11.00
20157;PMS5003;10239;56.820;24.416;2022-10-16T16:05:21;29.50;26.00;11.00
20157;PMS5003;10239;56.820;24.416;2022-10-16T16:07:49;29.25;26.50;11.75
20157;PMS5003;10239;56.820;24.416;2022-10-16T16:10:17;31.40;27.00;11.20